메인 페이지
METAR-TAF:

METAR-TAF

공항 :

두바이, 아랍에미리트

두바이 국제공항

위도: 25-15-10N, 경도: 055-21-52E, 고도: 8m

현재 날씨관측

예보는 50분 전, 05:00시(UTC)에 발표되었습니다.
여러 방향의 바람 5kt
온도 22°C
습도 65%
기압 1015 hPa
시정: 8000m

METAR: OMDB 200500Z VRB05KT 8000 NSC 22/15 Q1015 NOSIG

시각: 09:50 (05:50 UTC)

예보

예보는 49분 전, 05:01시(UTC)에 발표되었습니다.
예보 대상 시간: 20일 06시부터 21일 12시까지 (UTC)
남서5kt
시정: 8000m
전환 중
20일 06시부터 20일 08시까지 (UTC)
10kt
전환 중
20일 16시부터 20일 18시까지 (UTC)
5kt
확률 30%
21일 02시부터 21일 04시까지 (UTC)
시정: 4000m
연무
전환 중
21일 08시부터 21일 10시까지 (UTC)
북북서10kt

TAF: OMDB 200501Z 2006/2112 22005KT 8000 NSC BECMG 2006/2008 28010KT BECMG 2016/2018 18005KT PROB30 2102/2104 4000 HZ BECMG 2108/2110 34010KT

4,000개 이상의 공항 관측 자료 및 예보 (METAR 및 TAF 보고).

지도상에서 검색 가능한 기상관측소가 노란 점과 빨간 점으로 표시되어 있습니다.

기상관측소 명을 보려면 표시 위로 마우스를 이동하세요.

날씨 관측과 예보를 보려면 클릭하세요.

지도 변경 : 확대하려면 엑스 표시가 있는 녹색 버튼, 축소하려면 빼기 표시가 있는 녹색 버튼, 다음 페이지의 지도를 보려면 녹색 화살표를 클릭하세요.


METAR-TAF: